Issaquah, WA

8:22 AM PDT on July 24, 2016 (GMT -0700)
Mine Hill | | Change Station

Elev 160 ft 47.52 °N, 122.04 °W | Updated 22 seconds ago

Clear
Clear
65.9 °F
Feels Like 65.9 °F
N
0.0
Wind Variable Wind from East
Gusts 0.0 mph

Today
High -- | Low -- °F
--% Chance of Precip.
Yesterday
High -- | Low -- °F
Precip. -- in
Pressure 30.15 in
Visibility 10.0 miles
Clouds Clear
Dew Point 59 °F
Humidity 79%
Rainfall 0.00 in
Snow Depth Not available.
5:36 AM 8:51 PM
Waning Gibbous, 75% visible
METAR KRNT 241453Z 33006KT 10SM CLR 17/12 A3014 RMK AO2 SLP209 6//// T01670122 57002 PNO $
Pressure 30.15 in
Visibility 10.0 miles
Clouds Clear
Dew Point 59 °F
Humidity 79%
Rainfall 0.00 in
Snow Depth Not available.
5:36 AM 8:51 PM
Waning Gibbous, 75% visible
METAR KRNT 241453Z 33006KT 10SM CLR 17/12 A3014 RMK AO2 SLP209 6//// T01670122 57002 PNO $

10-Day Weather Forecast

Almanac

Astronomy

Jul. 24, 2016 Rise Set
Actual Time
Civil Twilight
Nautical Twilight
Astronomical Twilight
Moon
Length of Visible Light
Length of Day
Tomorrow will be .
, % of the Moon is Illuminated

Today's Extremes

State Highs State Lows

Community

WunderPhotos

Upload Photos

1,927,086 photos uploaded!

WunderBlog® & News

Nearby

Air Quality

  Air Quality AQ Index Pollutant
Not available.

Snow Depth

Station Depth Elevation

Earthquake Activity

City Distance Mag. Time & Date
Minimum magnitude displayed is 2.5.

Coastal Water Temperatures

Place Temperature

Stations

Nearby Weather Stations

Station Location Temp. Windchill Dew Point Humidity Wind Precip. Elev Updated Type
                   

Watches & Warnings

There are currently no watches in effect.